Terminal Aerodrome Forecast
Issued by NWS

Home | Current Version | Previous Version | Text Only | Print | Product List | Glossary On
Versions: 1 2 3 4 5 6 7 8 9 10 11 12 13 14 15 16
000
FTUS44 KLZK 010500
TAFHRO
TAF
KHRO 010529Z 0106/0206 13010KT P6SM -RA SCT025 OVC060
     FM010800 VRB06KT 5SM -SHRA BR SCT008 BKN015 OVC040
      WS020/21045KT
      TEMPO 0108/0112 2SM SHRA BR OVC008
     FM011600 29012G20KT P6SM VCSH BKN015 OVC035
     FM012000 30014G22KT P6SM BKN025=

USA.gov is the U.S. government's official web portal to all federal, state and local government web resources and services.